CheckWX is a tool to help pilots better visualize weather data.  It is not intended as a substitute for an official pre-flight weather briefing.

06:55:25 UTC

KHYI METAR
San Marcos Regional Airport
Austin, Texas, USA
Current

59 mins ago

KHYI 180556Z AUTO 00000KT 10SM CLR 22/21 A2993 RMK AO2 SLP125 T02220211 10300 20222 403110194 50005
Observed
Jun-18 @ 05:56 UTC
Visibility
10 SM
Flight Rules
VFR
Cloud Levels
  • Clear skies
Temperature
22°C / 72°F
Dewpoint
21°C / 70°F
Humidity
94%
Altimeter
29.93" Hg
Pressure
1013.52 hPa
Previous

2 hours ago

KHYI 180456Z AUTO 00000KT 10SM CLR 23/22 A2993 RMK AO2 SLP128 T02330217
Observed
Jun-18 @ 04:56 UTC
Visibility
10 SM
Flight Rules
VFR
Cloud Levels
  • Clear skies
Temperature
23°C / 73°F
Dewpoint
22°C / 72°F
Humidity
94%
Altimeter
29.93" Hg
Pressure
1013.52 hPa
Previous

3 hours ago

KHYI 180356Z AUTO 12003KT 10SM CLR 23/22 A2993 RMK AO2 SLP125 T02330217
Observed
Jun-18 @ 03:56 UTC
Wind
  • 120° at 3 KTS
Visibility
10 SM
Flight Rules
VFR
Cloud Levels
  • Clear skies
Temperature
23°C / 73°F
Dewpoint
22°C / 72°F
Humidity
94%
Altimeter
29.93" Hg
Pressure
1013.52 hPa